This is the latest recevied weather packets stored in our database for station/object KF5JED-13. If no packets are shown the sender has not sent any weather packets the latest 1 day(s).
| Time | Temp. | Humidity | Pressure | Rain* | Wind** | Luminosity | Snow |
|---|---|---|---|---|---|---|---|
| 1778005951 | 15.56° C | 46% | 1010.8 hPa | 0 mm | 2.68 m/s, 3° | 550 W/m² | - |
| 1778005640 | 16.11° C | 45% | 1010.9 hPa | 0 mm | 3.58 m/s, 8° | 684 W/m² | - |
| 1778005337 | 15° C | 47% | 1010.9 hPa | 0 mm | 4.47 m/s, 6° | 522 W/m² | - |
| 1778005033 | 15° C | 46% | 1011.2 hPa | 0 mm | 6.26 m/s, 33° | 399 W/m² | - |
| 1778004731 | 15° C | 47% | 1011.1 hPa | 0 mm | 3.58 m/s, 0° | 420 W/m² | - |
| 1778004427 | 15.56° C | 46% | 1011.3 hPa | 0 mm | 5.36 m/s, 351° | 447 W/m² | - |
| 1778004124 | 15° C | 48% | 1011.1 hPa | 0 mm | 2.68 m/s, 29° | 610 W/m² | - |
| 1778003820 | 15.56° C | 46% | 1011.3 hPa | 0 mm | 4.47 m/s, 18° | 533 W/m² | - |
| 1778003517 | 15.56° C | 46% | 1011.2 hPa | 0 mm | 4.92 m/s, 30° | 590 W/m² | - |
| 1778003213 | 16.11° C | 45% | 1011.1 hPa | 0 mm | 7.15 m/s, 7° | 592 W/m² | - |
| 1778002909 | 15° C | 47% | 1011.1 hPa | 0 mm | 4.92 m/s, 17° | 705 W/m² | - |
| 1778002606 | 16.67° C | 44% | 1011 hPa | 0 mm | 2.68 m/s, 34° | 916 W/m² | - |
| 1778002304 | 15.56° C | 46% | 1010.8 hPa | 0 mm | 4.92 m/s, 34° | 733 W/m² | - |
| 1778002001 | 15.56° C | 47% | 1011.1 hPa | 0 mm | 4.47 m/s, 354° | 810 W/m² | - |
| 1778001697 | 16.11° C | 46% | 1010.9 hPa | 0 mm | 6.26 m/s, 9° | 414 W/m² | - |
| 1778001392 | 15° C | 47% | 1010.9 hPa | 0 mm | 3.13 m/s, 34° | 798 W/m² | - |
| 1778001089 | 16.11° C | 45% | 1011 hPa | 0 mm | 4.47 m/s, 1° | 717 W/m² | - |
| 1778000787 | 16.11° C | 46% | 1011.3 hPa | 0 mm | 4.92 m/s, 41° | 856 W/m² | - |
| 1778000483 | 15° C | 49% | 1010.9 hPa | 0 mm | 4.02 m/s, 50° | 553 W/m² | - |
| 1778000177 | 15° C | 49% | 1010.8 hPa | 0 mm | 4.92 m/s, 49° | 397 W/m² | - |
| 1777999874 | 15° C | 48% | 1011.2 hPa | 0 mm | 7.15 m/s, 0° | 392 W/m² | - |
| 1777999570 | 15° C | 48% | 1011 hPa | 0 mm | 5.36 m/s, 45° | 670 W/m² | - |
| 1777999268 | 15° C | 48% | 1011 hPa | 0 mm | 3.58 m/s, 33° | 750 W/m² | - |
| 1777998966 | 15° C | 49% | 1011.1 hPa | 0 mm | 3.58 m/s, 25° | 484 W/m² | - |
| 1777998663 | 15° C | 49% | 1011.3 hPa | 0 mm | 4.02 m/s, 39° | 494 W/m² | - |
* Rain latest hour (hover to see other rain measurements)
** Current wind speed in m/s (hover to see current wind gust speed)